sensor_id;sensor_type;location;lat;lon;timestamp;temperature;humidity
20566;DHT22;10441;50.884;12.064;2022-11-03T00:39:04;4.40;1.00
20566;DHT22;10441;50.884;12.064;2022-11-03T00:41:31;4.50;1.00
20566;DHT22;10441;50.884;12.064;2022-11-03T00:43:59;4.50;1.00
20566;DHT22;10441;50.884;12.064;2022-11-03T00:46:26;4.70;1.00
20566;DHT22;10441;50.884;12.064;2022-11-03T00:48:54;5.10;99.90
20566;DHT22;10441;50.884;12.064;2022-11-03T00:51:23;5.50;1.00
20566;DHT22;10441;50.884;12.064;2022-11-03T00:53:51;5.70;1.00
20566;DHT22;10441;50.884;12.064;2022-11-03T00:56:20;5.60;1.00
20566;DHT22;10441;50.884;12.064;2022-11-03T00:58:48;5.80;99.90
20566;DHT22;10441;50.884;12.064;2022-11-03T01:01:15;6.00;1.00
20566;DHT22;10441;50.884;12.064;2022-11-03T01:03:43;6.30;1.00
20566;DHT22;10441;50.884;12.064;2022-11-03T01:06:31;6.20;1.00
20566;DHT22;10441;50.884;12.064;2022-11-03T01:09:16;6.30;99.90
20566;DHT22;10441;50.884;12.064;2022-11-03T01:11:49;6.30;99.90
20566;DHT22;10441;50.884;12.064;2022-11-03T01:14:17;6.30;99.90
20566;DHT22;10441;50.884;12.064;2022-11-03T01:16:49;6.20;99.90
20566;DHT22;10441;50.884;12.064;2022-11-03T01:19:16;6.10;1.00
20566;DHT22;10441;50.884;12.064;2022-11-03T01:21:43;6.30;99.90
20566;DHT22;10441;50.884;12.064;2022-11-03T01:24:10;6.30;99.90
20566;DHT22;10441;50.884;12.064;2022-11-03T01:26:37;6.10;99.90
20566;DHT22;10441;50.884;12.064;2022-11-03T01:29:06;6.00;1.00
20566;DHT22;10441;50.884;12.064;2022-11-03T01:31:32;5.90;1.00
20566;DHT22;10441;50.884;12.064;2022-11-03T01:34:00;5.50;1.00
20566;DHT22;10441;50.884;12.064;2022-11-03T01:36:26;5.40;6.00
20566;DHT22;10441;50.884;12.064;2022-11-03T01:38:54;5.30;1.00
20566;DHT22;10441;50.884;12.064;2022-11-03T01:41:25;5.20;1.00
20566;DHT22;10441;50.884;12.064;2022-11-03T01:44:22;5.10;49.70
20566;DHT22;10441;50.884;12.064;2022-11-03T01:46:52;5.00;99.90
20566;DHT22;10441;50.884;12.064;2022-11-03T01:49:22;5.00;1.00
20566;DHT22;10441;50.884;12.064;2022-11-03T01:51:52;4.90;1.00
20566;DHT22;10441;50.884;12.064;2022-11-03T01:54:20;4.80;99.90
20566;DHT22;10441;50.884;12.064;2022-11-03T01:56:49;4.70;99.90
20566;DHT22;10441;50.884;12.064;2022-11-03T01:59:16;4.70;99.90
20566;DHT22;10441;50.884;12.064;2022-11-03T02:01:44;4.70;32.40
20566;DHT22;10441;50.884;12.064;2022-11-03T02:04:15;4.70;1.00
20566;DHT22;10441;50.884;12.064;2022-11-03T02:06:44;4.80;1.00
20566;DHT22;10441;50.884;12.064;2022-11-03T02:09:11;4.70;1.00
20566;DHT22;10441;50.884;12.064;2022-11-03T02:11:38;4.70;1.00
20566;DHT22;10441;50.884;12.064;2022-11-03T02:14:22;4.70;99.90
20566;DHT22;10441;50.884;12.064;2022-11-03T02:16:50;4.80;7.00
20566;DHT22;10441;50.884;12.064;2022-11-03T02:19:20;4.80;1.00
20566;DHT22;10441;50.884;12.064;2022-11-03T02:21:54;4.80;99.90
20566;DHT22;10441;50.884;12.064;2022-11-03T02:24:23;4.80;3.50
20566;DHT22;10441;50.884;12.064;2022-11-03T02:26:54;4.80;32.20
20566;DHT22;10441;50.884;12.064;2022-11-03T02:29:21;4.70;1.00
20566;DHT22;10441;50.884;12.064;2022-11-03T02:31:49;4.70;1.00
20566;DHT22;10441;50.884;12.064;2022-11-03T02:34:20;4.70;1.00
20566;DHT22;10441;50.884;12.064;2022-11-03T02:36:50;4.70;1.00
20566;DHT22;10441;50.884;12.064;2022-11-03T02:39:19;4.70;1.00
20566;DHT22;10441;50.884;12.064;2022-11-03T02:41:48;4.70;1.00
20566;DHT22;10441;50.884;12.064;2022-11-03T02:44:17;4.90;99.90
20566;DHT22;10441;50.884;12.064;2022-11-03T02:46:45;4.90;99.90
20566;DHT22;10441;50.884;12.064;2022-11-03T02:49:13;4.70;99.90
20566;DHT22;10441;50.884;12.064;2022-11-03T02:51:39;4.70;99.90
20566;DHT22;10441;50.884;12.064;2022-11-03T02:54:07;4.70;1.00
20566;DHT22;10441;50.884;12.064;2022-11-03T02:56:39;4.70;99.90
20566;DHT22;10441;50.884;12.064;2022-11-03T02:59:09;4.80;1.00
20566;DHT22;10441;50.884;12.064;2022-11-03T03:01:40;4.70;99.90
20566;DHT22;10441;50.884;12.064;2022-11-03T03:04:13;4.60;7.70
20566;DHT22;10441;50.884;12.064;2022-11-03T03:06:42;4.60;30.70
20566;DHT22;10441;50.884;12.064;2022-11-03T03:09:10;4.70;1.00
20566;DHT22;10441;50.884;12.064;2022-11-03T03:11:40;4.60;1.00
20566;DHT22;10441;50.884;12.064;2022-11-03T03:14:09;4.60;55.40
20566;DHT22;10441;50.884;12.064;2022-11-03T03:16:52;4.60;1.00
20566;DHT22;10441;50.884;12.064;2022-11-03T03:19:22;4.60;99.90
20566;DHT22;10441;50.884;12.064;2022-11-03T03:21:55;4.90;99.90
20566;DHT22;10441;50.884;12.064;2022-11-03T03:24:26;4.80;1.00
20566;DHT22;10441;50.884;12.064;2022-11-03T03:26:55;4.80;1.00
20566;DHT22;10441;50.884;12.064;2022-11-03T03:29:24;4.60;1.00
20566;DHT22;10441;50.884;12.064;2022-11-03T03:31:54;4.70;99.90
20566;DHT22;10441;50.884;12.064;2022-11-03T03:34:23;4.60;99.90
20566;DHT22;10441;50.884;12.064;2022-11-03T03:36:50;4.70;99.90
20566;DHT22;10441;50.884;12.064;2022-11-03T04:41:28;3.30;99.90
20566;DHT22;10441;50.884;12.064;2022-11-03T04:43:57;3.30;99.90
20566;DHT22;10441;50.884;12.064;2022-11-03T04:46:24;3.20;99.90
20566;DHT22;10441;50.884;12.064;2022-11-03T04:48:52;3.10;99.90
20566;DHT22;10441;50.884;12.064;2022-11-03T04:51:20;3.10;99.90
20566;DHT22;10441;50.884;12.064;2022-11-03T04:53:49;3.20;99.90
20566;DHT22;10441;50.884;12.064;2022-11-03T04:56:20;3.10;99.90
20566;DHT22;10441;50.884;12.064;2022-11-03T04:58:49;3.10;99.90
20566;DHT22;10441;50.884;12.064;2022-11-03T05:01:16;3.10;99.90
20566;DHT22;10441;50.884;12.064;2022-11-03T05:03:44;3.00;99.90
20566;DHT22;10441;50.884;12.064;2022-11-03T05:06:13;2.90;99.90
20566;DHT22;10441;50.884;12.064;2022-11-03T05:08:41;2.90;99.90
20566;DHT22;10441;50.884;12.064;2022-11-03T05:11:11;3.00;99.90
20566;DHT22;10441;50.884;12.064;2022-11-03T05:13:40;3.10;99.90
20566;DHT22;10441;50.884;12.064;2022-11-03T05:16:08;3.10;99.90
20566;DHT22;10441;50.884;12.064;2022-11-03T05:18:37;3.10;99.90
20566;DHT22;10441;50.884;12.064;2022-11-03T05:21:08;3.20;99.90
20566;DHT22;10441;50.884;12.064;2022-11-03T05:23:37;3.20;99.90
20566;DHT22;10441;50.884;12.064;2022-11-03T05:26:06;3.30;99.90
20566;DHT22;10441;50.884;12.064;2022-11-03T05:28:36;3.10;99.90
20566;DHT22;10441;50.884;12.064;2022-11-03T05:31:13;3.00;99.90
20566;DHT22;10441;50.884;12.064;2022-11-03T05:33:40;3.00;99.90
20566;DHT22;10441;50.884;12.064;2022-11-03T05:36:10;2.90;99.90
20566;DHT22;10441;50.884;12.064;2022-11-03T05:38:41;2.80;99.90
20566;DHT22;10441;50.884;12.064;2022-11-03T05:41:11;3.00;99.90
20566;DHT22;10441;50.884;12.064;2022-11-03T05:43:40;3.00;99.90
20566;DHT22;10441;50.884;12.064;2022-11-03T05:46:07;2.90;99.90
20566;DHT22;10441;50.884;12.064;2022-11-03T05:48:38;2.80;99.90
20566;DHT22;10441;50.884;12.064;2022-11-03T05:51:11;2.80;99.90
20566;DHT22;10441;50.884;12.064;2022-11-03T05:53:43;2.70;99.90
20566;DHT22;10441;50.884;12.064;2022-11-03T05:56:13;2.70;99.90
20566;DHT22;10441;50.884;12.064;2022-11-03T05:58:43;2.80;99.90
20566;DHT22;10441;50.884;12.064;2022-11-03T06:01:12;2.70;99.90
20566;DHT22;10441;50.884;12.064;2022-11-03T06:03:44;2.80;99.90
20566;DHT22;10441;50.884;12.064;2022-11-03T06:06:14;2.90;99.90
20566;DHT22;10441;50.884;12.064;2022-11-03T06:08:43;3.00;99.90
20566;DHT22;10441;50.884;12.064;2022-11-03T06:11:15;3.00;99.90
20566;DHT22;10441;50.884;12.064;2022-11-03T06:13:42;3.10;99.90
20566;DHT22;10441;50.884;12.064;2022-11-03T06:16:14;3.20;99.90
20566;DHT22;10441;50.884;12.064;2022-11-03T06:18:50;3.30;99.90
20566;DHT22;10441;50.884;12.064;2022-11-03T06:21:20;3.30;99.90
20566;DHT22;10441;50.884;12.064;2022-11-03T06:23:48;3.20;99.90
20566;DHT22;10441;50.884;12.064;2022-11-03T06:26:17;3.10;99.90
20566;DHT22;10441;50.884;12.064;2022-11-03T06:28:45;3.10;99.90
20566;DHT22;10441;50.884;12.064;2022-11-03T06:31:16;3.10;99.90
20566;DHT22;10441;50.884;12.064;2022-11-03T06:33:44;3.20;99.90
20566;DHT22;10441;50.884;12.064;2022-11-03T06:36:15;3.20;99.90
20566;DHT22;10441;50.884;12.064;2022-11-03T06:38:44;3.30;99.90
20566;DHT22;10441;50.884;12.064;2022-11-03T06:41:17;3.40;99.90
20566;DHT22;10441;50.884;12.064;2022-11-03T06:43:46;3.50;99.90
20566;DHT22;10441;50.884;12.064;2022-11-03T06:46:17;3.60;99.90
20566;DHT22;10441;50.884;12.064;2022-11-03T06:48:45;3.60;99.90
20566;DHT22;10441;50.884;12.064;2022-11-03T06:51:15;3.70;99.90
20566;DHT22;10441;50.884;12.064;2022-11-03T06:53:45;3.90;1.00
20566;DHT22;10441;50.884;12.064;2022-11-03T06:56:17;3.90;1.00
20566;DHT22;10441;50.884;12.064;2022-11-03T06:59:06;4.00;99.90
20566;DHT22;10441;50.884;12.064;2022-11-03T07:01:56;4.20;1.00
20566;DHT22;10441;50.884;12.064;2022-11-03T07:04:37;4.40;70.10
20566;DHT22;10441;50.884;12.064;2022-11-03T07:07:07;4.70;99.90
20566;DHT22;10441;50.884;12.064;2022-11-03T07:09:34;5.00;1.00
20566;DHT22;10441;50.884;12.064;2022-11-03T07:12:00;5.10;99.90
20566;DHT22;10441;50.884;12.064;2022-11-03T07:14:28;5.30;1.00
20566;DHT22;10441;50.884;12.064;2022-11-03T07:16:57;5.40;99.90
20566;DHT22;10441;50.884;12.064;2022-11-03T07:19:26;5.40;99.90
20566;DHT22;10441;50.884;12.064;2022-11-03T07:21:56;5.50;1.00
20566;DHT22;10441;50.884;12.064;2022-11-03T07:24:26;5.80;1.00
20566;DHT22;10441;50.884;12.064;2022-11-03T07:26:53;6.10;99.90
20566;DHT22;10441;50.884;12.064;2022-11-03T07:29:24;6.30;99.90
20566;DHT22;10441;50.884;12.064;2022-11-03T07:31:52;6.60;99.90
20566;DHT22;10441;50.884;12.064;2022-11-03T07:34:20;6.80;86.20
20566;DHT22;10441;50.884;12.064;2022-11-03T07:36:47;7.10;5.10
20566;DHT22;10441;50.884;12.064;2022-11-03T07:39:15;7.70;1.00
20566;DHT22;10441;50.884;12.064;2022-11-03T08:42:30;10.60;1.00
20566;DHT22;10441;50.884;12.064;2022-11-03T08:44:57;11.60;1.00
20566;DHT22;10441;50.884;12.064;2022-11-03T08:47:24;13.00;1.00
20566;DHT22;10441;50.884;12.064;2022-11-03T08:49:50;12.40;1.00
20566;DHT22;10441;50.884;12.064;2022-11-03T08:52:17;12.00;1.00
20566;DHT22;10441;50.884;12.064;2022-11-03T08:54:46;12.90;1.00
20566;DHT22;10441;50.884;12.064;2022-11-03T08:57:14;12.40;1.00
20566;DHT22;10441;50.884;12.064;2022-11-03T08:59:42;12.90;1.00
20566;DHT22;10441;50.884;12.064;2022-11-03T09:02:09;14.20;1.00
20566;DHT22;10441;50.884;12.064;2022-11-03T09:04:36;15.00;1.00
20566;DHT22;10441;50.884;12.064;2022-11-03T09:07:02;14.70;1.00
20566;DHT22;10441;50.884;12.064;2022-11-03T09:09:29;14.60;1.00
20566;DHT22;10441;50.884;12.064;2022-11-03T09:11:56;14.90;1.00
20566;DHT22;10441;50.884;12.064;2022-11-03T09:14:23;15.80;1.00
20566;DHT22;10441;50.884;12.064;2022-11-03T09:16:51;16.80;1.00
20566;DHT22;10441;50.884;12.064;2022-11-03T09:19:18;16.80;1.00
20566;DHT22;10441;50.884;12.064;2022-11-03T09:21:44;16.30;1.00
20566;DHT22;10441;50.884;12.064;2022-11-03T09:24:11;16.10;1.00
20566;DHT22;10441;50.884;12.064;2022-11-03T09:26:38;15.00;1.00
20566;DHT22;10441;50.884;12.064;2022-11-03T09:29:05;14.80;1.00
20566;DHT22;10441;50.884;12.064;2022-11-03T09:31:31;14.50;1.00
20566;DHT22;10441;50.884;12.064;2022-11-03T09:33:59;14.40;1.00
20566;DHT22;10441;50.884;12.064;2022-11-03T09:36:26;14.40;1.00
20566;DHT22;10441;50.884;12.064;2022-11-03T09:38:53;14.50;1.00
20566;DHT22;10441;50.884;12.064;2022-11-03T09:41:20;14.00;1.00
20566;DHT22;10441;50.884;12.064;2022-11-03T09:43:47;14.00;1.00
20566;DHT22;10441;50.884;12.064;2022-11-03T09:46:15;14.70;1.00
20566;DHT22;10441;50.884;12.064;2022-11-03T09:48:42;14.50;1.00
20566;DHT22;10441;50.884;12.064;2022-11-03T09:51:11;14.50;1.00
20566;DHT22;10441;50.884;12.064;2022-11-03T09:53:40;14.60;1.00
20566;DHT22;10441;50.884;12.064;2022-11-03T09:56:07;14.50;1.00
20566;DHT22;10441;50.884;12.064;2022-11-03T09:58:34;14.00;1.00
20566;DHT22;10441;50.884;12.064;2022-11-03T10:01:01;14.10;1.00
20566;DHT22;10441;50.884;12.064;2022-11-03T10:03:28;14.50;1.00
20566;DHT22;10441;50.884;12.064;2022-11-03T10:05:55;14.50;1.00
20566;DHT22;10441;50.884;12.064;2022-11-03T10:08:24;14.40;1.00
20566;DHT22;10441;50.884;12.064;2022-11-03T10:10:52;14.50;1.00
20566;DHT22;10441;50.884;12.064;2022-11-03T10:13:21;14.50;1.00
20566;DHT22;10441;50.884;12.064;2022-11-03T10:15:49;14.50;1.00
20566;DHT22;10441;50.884;12.064;2022-11-03T10:18:15;14.50;1.00
20566;DHT22;10441;50.884;12.064;2022-11-03T10:20:43;14.70;1.00
20566;DHT22;10441;50.884;12.064;2022-11-03T10:23:10;14.30;1.00
20566;DHT22;10441;50.884;12.064;2022-11-03T10:25:41;14.20;1.00
20566;DHT22;10441;50.884;12.064;2022-11-03T10:28:19;14.40;1.00
20566;DHT22;10441;50.884;12.064;2022-11-03T10:30:49;14.50;1.00
20566;DHT22;10441;50.884;12.064;2022-11-03T10:33:28;14.30;1.00
20566;DHT22;10441;50.884;12.064;2022-11-03T10:35:58;14.40;1.00
20566;DHT22;10441;50.884;12.064;2022-11-03T10:38:26;14.20;1.00
20566;DHT22;10441;50.884;12.064;2022-11-03T10:40:56;14.60;1.00
20566;DHT22;10441;50.884;12.064;2022-11-03T13:45:34;18.00;99.90
20566;DHT22;10441;50.884;12.064;2022-11-03T13:48:01;17.30;99.90
20566;DHT22;10441;50.884;12.064;2022-11-03T13:50:28;16.70;99.90
20566;DHT22;10441;50.884;12.064;2022-11-03T13:52:55;16.30;99.90
20566;DHT22;10441;50.884;12.064;2022-11-03T13:55:21;15.90;99.90
20566;DHT22;10441;50.884;12.064;2022-11-03T13:57:48;15.50;99.90
20566;DHT22;10441;50.884;12.064;2022-11-03T14:00:15;15.50;99.90
20566;DHT22;10441;50.884;12.064;2022-11-03T14:02:43;15.30;99.90
20566;DHT22;10441;50.884;12.064;2022-11-03T14:05:10;15.20;1.00
20566;DHT22;10441;50.884;12.064;2022-11-03T14:07:38;15.20;1.00
20566;DHT22;10441;50.884;12.064;2022-11-03T14:10:05;15.00;1.00
20566;DHT22;10441;50.884;12.064;2022-11-03T14:12:32;14.90;1.00
20566;DHT22;10441;50.884;12.064;2022-11-03T14:14:59;14.80;1.00
20566;DHT22;10441;50.884;12.064;2022-11-03T14:17:26;14.70;1.00
20566;DHT22;10441;50.884;12.064;2022-11-03T14:19:55;14.70;1.00
20566;DHT22;10441;50.884;12.064;2022-11-03T14:22:22;14.60;1.00
20566;DHT22;10441;50.884;12.064;2022-11-03T14:24:49;14.50;1.00
20566;DHT22;10441;50.884;12.064;2022-11-03T14:27:16;14.50;1.00
20566;DHT22;10441;50.884;12.064;2022-11-03T14:29:43;14.40;1.00
20566;DHT22;10441;50.884;12.064;2022-11-03T14:32:14;14.30;1.00
20566;DHT22;10441;50.884;12.064;2022-11-03T14:34:40;14.30;1.00
20566;DHT22;10441;50.884;12.064;2022-11-03T14:37:09;14.20;1.00
20566;DHT22;10441;50.884;12.064;2022-11-03T14:39:37;14.10;1.00
20566;DHT22;10441;50.884;12.064;2022-11-03T14:42:04;14.00;1.00
20566;DHT22;10441;50.884;12.064;2022-11-03T14:44:31;14.00;1.00
20566;DHT22;10441;50.884;12.064;2022-11-03T14:46:58;13.90;1.00
20566;DHT22;10441;50.884;12.064;2022-11-03T14:49:27;13.80;1.00
20566;DHT22;10441;50.884;12.064;2022-11-03T14:51:53;13.80;1.00
20566;DHT22;10441;50.884;12.064;2022-11-03T14:54:22;13.70;1.00
20566;DHT22;10441;50.884;12.064;2022-11-03T14:56:49;13.60;1.00
20566;DHT22;10441;50.884;12.064;2022-11-03T14:59:16;13.60;1.00
20566;DHT22;10441;50.884;12.064;2022-11-03T15:01:43;13.50;1.00
20566;DHT22;10441;50.884;12.064;2022-11-03T15:04:10;13.40;1.00
20566;DHT22;10441;50.884;12.064;2022-11-03T15:06:37;13.30;1.00
20566;DHT22;10441;50.884;12.064;2022-11-03T15:09:04;13.30;1.00
20566;DHT22;10441;50.884;12.064;2022-11-03T15:11:32;13.20;1.00
20566;DHT22;10441;50.884;12.064;2022-11-03T15:13:59;13.10;1.00
20566;DHT22;10441;50.884;12.064;2022-11-03T15:16:27;13.10;1.00
20566;DHT22;10441;50.884;12.064;2022-11-03T15:18:54;13.10;1.00
20566;DHT22;10441;50.884;12.064;2022-11-03T15:21:20;12.90;1.00
20566;DHT22;10441;50.884;12.064;2022-11-03T15:23:47;12.90;1.00
20566;DHT22;10441;50.884;12.064;2022-11-03T15:26:14;12.90;1.00
20566;DHT22;10441;50.884;12.064;2022-11-03T15:28:42;12.80;1.00
20566;DHT22;10441;50.884;12.064;2022-11-03T15:31:09;12.70;1.00
20566;DHT22;10441;50.884;12.064;2022-11-03T15:33:36;12.70;1.00
20566;DHT22;10441;50.884;12.064;2022-11-03T15:36:03;12.60;1.00
20566;DHT22;10441;50.884;12.064;2022-11-03T15:38:31;12.50;1.00
20566;DHT22;10441;50.884;12.064;2022-11-03T15:40:58;12.40;1.00
20566;DHT22;10441;50.884;12.064;2022-11-03T15:43:39;12.40;1.00
20566;DHT22;10441;50.884;12.064;2022-11-03T16:47:25;11.90;1.00
20566;DHT22;10441;50.884;12.064;2022-11-03T16:49:53;11.80;1.00
20566;DHT22;10441;50.884;12.064;2022-11-03T16:52:21;11.60;1.00
20566;DHT22;10441;50.884;12.064;2022-11-03T16:54:49;11.60;1.00
20566;DHT22;10441;50.884;12.064;2022-11-03T16:57:20;11.60;1.00
20566;DHT22;10441;50.884;12.064;2022-11-03T16:59:50;11.50;1.00
20566;DHT22;10441;50.884;12.064;2022-11-03T17:02:17;11.50;1.00
20566;DHT22;10441;50.884;12.064;2022-11-03T17:04:45;11.40;1.00
20566;DHT22;10441;50.884;12.064;2022-11-03T17:07:12;11.40;1.00
20566;DHT22;10441;50.884;12.064;2022-11-03T17:09:39;11.30;1.00
20566;DHT22;10441;50.884;12.064;2022-11-03T17:12:05;11.30;1.00
20566;DHT22;10441;50.884;12.064;2022-11-03T17:14:32;11.20;1.00
20566;DHT22;10441;50.884;12.064;2022-11-03T17:17:01;11.30;1.00
20566;DHT22;10441;50.884;12.064;2022-11-03T17:19:28;11.30;1.00
20566;DHT22;10441;50.884;12.064;2022-11-03T17:21:57;11.30;1.00
20566;DHT22;10441;50.884;12.064;2022-11-03T17:24:23;11.30;1.00
20566;DHT22;10441;50.884;12.064;2022-11-03T17:26:52;11.30;1.00
20566;DHT22;10441;50.884;12.064;2022-11-03T17:29:22;11.20;1.00
20566;DHT22;10441;50.884;12.064;2022-11-03T17:31:51;11.20;1.00
20566;DHT22;10441;50.884;12.064;2022-11-03T17:34:20;11.00;1.00
20566;DHT22;10441;50.884;12.064;2022-11-03T17:36:51;11.00;1.00
20566;DHT22;10441;50.884;12.064;2022-11-03T17:39:21;11.00;1.00
20566;DHT22;10441;50.884;12.064;2022-11-03T17:41:52;11.20;1.00
20566;DHT22;10441;50.884;12.064;2022-11-03T17:44:20;11.10;1.00
20566;DHT22;10441;50.884;12.064;2022-11-03T18:48:03;11.20;1.00
20566;DHT22;10441;50.884;12.064;2022-11-03T18:50:30;11.20;1.00
20566;DHT22;10441;50.884;12.064;2022-11-03T18:52:57;11.20;1.00
20566;DHT22;10441;50.884;12.064;2022-11-03T18:55:23;11.10;1.00
20566;DHT22;10441;50.884;12.064;2022-11-03T18:57:50;11.20;1.00
20566;DHT22;10441;50.884;12.064;2022-11-03T19:00:19;11.20;1.00
20566;DHT22;10441;50.884;12.064;2022-11-03T19:02:47;11.10;1.00
20566;DHT22;10441;50.884;12.064;2022-11-03T19:05:16;11.00;1.00
20566;DHT22;10441;50.884;12.064;2022-11-03T19:07:44;10.90;1.00
20566;DHT22;10441;50.884;12.064;2022-11-03T19:10:12;10.90;1.00
20566;DHT22;10441;50.884;12.064;2022-11-03T19:12:39;10.80;1.00
20566;DHT22;10441;50.884;12.064;2022-11-03T19:15:09;10.80;1.00
20566;DHT22;10441;50.884;12.064;2022-11-03T19:17:38;10.80;1.00
20566;DHT22;10441;50.884;12.064;2022-11-03T19:20:08;10.80;1.00
20566;DHT22;10441;50.884;12.064;2022-11-03T19:22:38;10.80;1.00
20566;DHT22;10441;50.884;12.064;2022-11-03T19:25:05;10.60;1.00
20566;DHT22;10441;50.884;12.064;2022-11-03T19:27:34;10.70;1.00
20566;DHT22;10441;50.884;12.064;2022-11-03T19:30:02;10.60;1.00
20566;DHT22;10441;50.884;12.064;2022-11-03T19:32:30;10.50;1.00
20566;DHT22;10441;50.884;12.064;2022-11-03T19:34:58;10.50;1.00
20566;DHT22;10441;50.884;12.064;2022-11-03T19:37:27;10.40;1.00
20566;DHT22;10441;50.884;12.064;2022-11-03T19:39:56;10.40;1.00
20566;DHT22;10441;50.884;12.064;2022-11-03T19:42:23;10.40;1.00
20566;DHT22;10441;50.884;12.064;2022-11-03T19:44:51;10.30;1.00
20566;DHT22;10441;50.884;12.064;2022-11-03T19:47:18;10.40;1.00
20566;DHT22;10441;50.884;12.064;2022-11-03T20:14:34;10.20;1.00
20566;DHT22;10441;50.884;12.064;2022-11-03T20:17:07;10.20;1.00
20566;DHT22;10441;50.884;12.064;2022-11-03T20:19:35;10.20;1.00
20566;DHT22;10441;50.884;12.064;2022-11-03T20:22:02;10.20;1.00
20566;DHT22;10441;50.884;12.064;2022-11-03T20:24:29;10.20;1.00
20566;DHT22;10441;50.884;12.064;2022-11-03T20:26:58;10.10;1.00
20566;DHT22;10441;50.884;12.064;2022-11-03T20:29:24;10.20;1.00
20566;DHT22;10441;50.884;12.064;2022-11-03T20:31:52;10.00;1.00
20566;DHT22;10441;50.884;12.064;2022-11-03T20:34:19;9.90;1.00
20566;DHT22;10441;50.884;12.064;2022-11-03T20:36:47;9.80;1.00
20566;DHT22;10441;50.884;12.064;2022-11-03T20:39:14;9.60;1.00
20566;DHT22;10441;50.884;12.064;2022-11-03T20:41:43;9.70;1.00
20566;DHT22;10441;50.884;12.064;2022-11-03T20:44:11;9.80;1.00
20566;DHT22;10441;50.884;12.064;2022-11-03T20:46:38;9.90;1.00
20566;DHT22;10441;50.884;12.064;2022-11-03T20:49:06;9.80;1.00
20566;DHT22;10441;50.884;12.064;2022-11-03T20:51:33;10.00;1.00
20566;DHT22;10441;50.884;12.064;2022-11-03T20:54:00;10.20;1.00
20566;DHT22;10441;50.884;12.064;2022-11-03T20:56:28;10.10;1.00
20566;DHT22;10441;50.884;12.064;2022-11-03T20:58:55;10.20;1.00
20566;DHT22;10441;50.884;12.064;2022-11-03T21:01:23;10.20;1.00
20566;DHT22;10441;50.884;12.064;2022-11-03T21:03:50;10.20;1.00
20566;DHT22;10441;50.884;12.064;2022-11-03T21:06:18;10.30;1.00
20566;DHT22;10441;50.884;12.064;2022-11-03T21:08:46;10.30;1.00
20566;DHT22;10441;50.884;12.064;2022-11-03T21:11:14;10.40;1.00
20566;DHT22;10441;50.884;12.064;2022-11-03T21:13:52;10.40;1.00
20566;DHT22;10441;50.884;12.064;2022-11-03T21:16:19;10.30;1.00
20566;DHT22;10441;50.884;12.064;2022-11-03T21:19:07;10.30;1.00
20566;DHT22;10441;50.884;12.064;2022-11-03T21:21:53;10.30;1.00
20566;DHT22;10441;50.884;12.064;2022-11-03T21:24:20;10.40;1.00
20566;DHT22;10441;50.884;12.064;2022-11-03T21:26:46;10.40;1.00
20566;DHT22;10441;50.884;12.064;2022-11-03T21:29:13;10.50;1.00
20566;DHT22;10441;50.884;12.064;2022-11-03T21:31:40;10.40;1.00
20566;DHT22;10441;50.884;12.064;2022-11-03T21:34:07;10.40;1.00
20566;DHT22;10441;50.884;12.064;2022-11-03T21:36:34;10.30;1.00
20566;DHT22;10441;50.884;12.064;2022-11-03T21:39:02;10.30;1.00
20566;DHT22;10441;50.884;12.064;2022-11-03T21:41:29;10.20;1.00
20566;DHT22;10441;50.884;12.064;2022-11-03T21:44:13;10.20;1.00
20566;DHT22;10441;50.884;12.064;2022-11-03T21:46:40;10.20;1.00
20566;DHT22;10441;50.884;12.064;2022-11-03T21:49:09;10.10;1.00
20566;DHT22;10441;50.884;12.064;2022-11-03T21:51:55;10.00;1.00
20566;DHT22;10441;50.884;12.064;2022-11-03T21:54:25;9.90;1.00
20566;DHT22;10441;50.884;12.064;2022-11-03T21:56:52;9.80;1.00
20566;DHT22;10441;50.884;12.064;2022-11-03T21:59:21;9.70;1.00
20566;DHT22;10441;50.884;12.064;2022-11-03T22:01:49;9.60;1.00
20566;DHT22;10441;50.884;12.064;2022-11-03T22:04:18;9.60;1.00
20566;DHT22;10441;50.884;12.064;2022-11-03T22:06:45;9.50;11.10
20566;DHT22;10441;50.884;12.064;2022-11-03T22:09:13;9.50;14.20
20566;DHT22;10441;50.884;12.064;2022-11-03T22:11:42;9.50;1.00
20566;DHT22;10441;50.884;12.064;2022-11-03T22:14:09;9.50;1.00
20566;DHT22;10441;50.884;12.064;2022-11-03T22:16:36;9.50;1.00
20566;DHT22;10441;50.884;12.064;2022-11-03T22:19:03;9.40;1.00
20566;DHT22;10441;50.884;12.064;2022-11-03T22:21:47;9.40;1.00
20566;DHT22;10441;50.884;12.064;2022-11-03T22:24:32;9.30;1.00
20566;DHT22;10441;50.884;12.064;2022-11-03T22:27:19;9.10;99.90
20566;DHT22;10441;50.884;12.064;2022-11-03T22:29:47;8.90;99.90
